createdAt,value
2022-10-23T00:00:18.740Z,1.04
2022-10-23T00:01:18.832Z,1.04
2022-10-23T00:02:19.063Z,1.04
2022-10-23T00:03:19.131Z,1.04
2022-10-23T00:04:19.322Z,1.04
2022-10-23T00:05:19.443Z,1.04
2022-10-23T00:06:19.586Z,1.04
2022-10-23T00:07:19.761Z,1.04
2022-10-23T00:08:19.900Z,1.04
2022-10-23T00:09:20.053Z,1.04
2022-10-23T00:10:20.207Z,1.04
2022-10-23T00:11:20.310Z,1.04
2022-10-23T00:12:20.457Z,1.04
2022-10-23T00:13:20.600Z,1.04
2022-10-23T00:14:20.762Z,1.04
2022-10-23T00:15:20.924Z,1.04
2022-10-23T00:16:21.057Z,1.04
2022-10-23T00:17:21.170Z,1.04
2022-10-23T00:18:21.306Z,1.04
2022-10-23T00:19:21.467Z,1.04
2022-10-23T00:20:21.601Z,1.04
2022-10-23T00:21:21.724Z,1.04
2022-10-23T00:22:21.871Z,1.04
2022-10-23T00:23:22.031Z,1.04
2022-10-23T00:24:22.175Z,1.04
2022-10-23T00:25:22.344Z,1.04
2022-10-23T00:26:22.592Z,1.04
2022-10-23T00:27:22.679Z,1.04
2022-10-23T00:28:22.835Z,1.04
2022-10-23T00:29:22.989Z,1.04
2022-10-23T00:30:23.145Z,1.04
2022-10-23T00:31:23.278Z,1.04
2022-10-23T00:32:23.437Z,1.04
2022-10-23T00:33:23.508Z,1.04
2022-10-23T00:34:23.636Z,1.04
2022-10-23T00:35:23.743Z,1.04
2022-10-23T00:36:23.893Z,1.04
2022-10-23T00:37:24.038Z,1.04
2022-10-23T00:38:24.197Z,1.04
2022-10-23T00:39:24.307Z,1.04
2022-10-23T00:40:24.448Z,1.04
2022-10-23T00:41:24.604Z,1.04
2022-10-23T00:42:24.724Z,1.04
2022-10-23T00:43:24.868Z,1.04
2022-10-23T00:44:24.961Z,1.04
2022-10-23T00:45:25.130Z,1.04
2022-10-23T00:46:25.261Z,1.04
2022-10-23T00:47:25.413Z,1.04
2022-10-23T00:48:25.518Z,1.04
2022-10-23T00:49:25.697Z,1.04
2022-10-23T00:50:25.847Z,1.04
2022-10-23T00:51:25.980Z,1.04
2022-10-23T00:52:26.088Z,1.04
2022-10-23T00:53:26.243Z,1.04
2022-10-23T00:54:26.384Z,1.04
2022-10-23T00:55:26.535Z,1.04
2022-10-23T00:56:26.675Z,1.04
2022-10-23T00:58:27.947Z,1.04
2022-10-23T00:59:27.094Z,1.04
2022-10-23T01:00:27.235Z,1.04
2022-10-23T01:01:27.471Z,1.04
2022-10-23T01:02:27.660Z,1.04
2022-10-23T01:03:27.649Z,1.04
2022-10-23T01:04:27.790Z,1.04
2022-10-23T01:05:27.951Z,1.04
2022-10-23T01:06:28.046Z,1.04
2022-10-23T01:07:28.192Z,1.04
2022-10-23T01:08:28.345Z,1.04
2022-10-23T01:09:28.501Z,1.04
2022-10-23T01:10:28.648Z,1.04
2022-10-23T01:11:28.797Z,1.04
2022-10-23T01:12:28.907Z,1.04
2022-10-23T01:13:29.052Z,1.04
2022-10-23T01:14:29.224Z,1.04
2022-10-23T01:15:29.313Z,1.04
2022-10-23T01:16:29.479Z,1.04
2022-10-23T01:17:29.635Z,1.04
2022-10-23T01:18:29.773Z,1.04
2022-10-23T01:19:29.875Z,1.04
2022-10-23T01:20:30.018Z,1.04
2022-10-23T01:21:30.117Z,1.04
2022-10-23T01:22:30.275Z,1.04
2022-10-23T01:23:30.423Z,1.04
2022-10-23T01:24:30.566Z,1.04
2022-10-23T01:25:30.721Z,1.04
2022-10-23T01:26:30.823Z,1.04
2022-10-23T01:27:30.974Z,1.04
2022-10-23T01:28:31.128Z,1.04
2022-10-23T01:29:31.273Z,1.04
2022-10-23T01:30:31.505Z,1.04
2022-10-23T01:31:31.583Z,1.04
2022-10-23T01:32:31.693Z,1.04
2022-10-23T01:33:31.838Z,1.04
2022-10-23T01:34:31.988Z,1.04
2022-10-23T01:35:32.094Z,1.04
2022-10-23T01:36:32.249Z,1.04
2022-10-23T01:37:32.402Z,1.04
2022-10-23T01:38:32.550Z,1.04
2022-10-23T01:39:32.697Z,1.04
2022-10-23T01:40:32.854Z,1.04
2022-10-23T01:41:33.004Z,1.04
2022-10-23T01:42:33.151Z,1.04
2022-10-23T01:43:33.307Z,1.04
2022-10-23T01:44:33.455Z,1.04
2022-10-23T01:45:33.617Z,1.04
2022-10-23T01:46:33.709Z,1.04
2022-10-23T01:47:33.833Z,1.04
2022-10-23T01:48:33.982Z,1.04
2022-10-23T01:49:34.135Z,1.04
2022-10-23T01:50:34.268Z,1.04
2022-10-23T01:51:34.384Z,1.04
2022-10-23T01:52:34.469Z,1.04
2022-10-23T01:53:34.580Z,1.04
2022-10-23T01:54:34.720Z,1.04
2022-10-23T01:55:34.963Z,1.04
2022-10-23T01:56:35.020Z,1.04
2022-10-23T01:57:35.144Z,1.04
2022-10-23T01:58:35.350Z,1.04
2022-10-23T01:59:35.519Z,1.04
2022-10-23T02:00:35.648Z,1.04
2022-10-23T02:01:35.822Z,1.04
2022-10-23T02:02:35.953Z,1.04
2022-10-23T02:03:36.039Z,1.04
2022-10-23T02:04:36.202Z,1.04
2022-10-23T02:05:36.343Z,1.04
2022-10-23T02:06:36.503Z,1.04
2022-10-23T02:07:36.597Z,1.04
2022-10-23T02:08:36.752Z,1.04
2022-10-23T02:09:36.902Z,1.04
2022-10-23T02:10:37.067Z,1.04
2022-10-23T02:11:37.213Z,1.04
2022-10-23T02:12:37.311Z,1.04
2022-10-23T02:13:37.456Z,1.04
2022-10-23T02:14:37.573Z,1.04
2022-10-23T02:15:37.712Z,1.04
2022-10-23T02:16:37.869Z,1.04
2022-10-23T02:17:38.015Z,1.04
2022-10-23T02:18:38.116Z,1.04
2022-10-23T02:19:38.252Z,1.04
2022-10-23T02:20:38.463Z,1.04
2022-10-23T02:21:38.523Z,1.04
2022-10-23T02:22:38.681Z,1.04
2022-10-23T02:23:38.820Z,1.04
2022-10-23T02:24:38.985Z,1.04
2022-10-23T02:25:39.102Z,1.04
2022-10-23T02:26:39.398Z,1.04
2022-10-23T02:27:39.431Z,1.04
2022-10-23T02:28:39.598Z,1.04
2022-10-23T02:29:39.739Z,1.04
2022-10-23T02:30:39.884Z,1.04
2022-10-23T02:31:40.003Z,1.04
2022-10-23T02:32:40.340Z,1.04
2022-10-23T02:33:40.301Z,1.04
2022-10-23T02:34:40.451Z,1.04
2022-10-23T02:35:40.584Z,1.04
2022-10-23T02:36:40.761Z,1.04
2022-10-23T02:37:41.268Z,1.04
2022-10-23T02:38:41.006Z,1.04
2022-10-23T02:39:41.100Z,1.04
2022-10-23T02:40:41.259Z,1.04
2022-10-23T02:41:41.389Z,1.04
2022-10-23T02:42:41.486Z,1.04
2022-10-23T02:43:41.703Z,1.04
2022-10-23T02:44:41.816Z,1.04
2022-10-23T02:45:41.958Z,1.04
2022-10-23T02:46:42.122Z,1.04
2022-10-23T02:47:42.371Z,1.04
2022-10-23T02:48:42.411Z,1.04
2022-10-23T02:49:42.564Z,1.04
2022-10-23T02:50:42.701Z,1.04
2022-10-23T02:51:42.830Z,1.04
2022-10-23T02:52:42.962Z,1.04
2022-10-23T02:53:43.095Z,1.04
2022-10-23T02:54:43.216Z,1.04
2022-10-23T02:55:43.376Z,1.04
2022-10-23T02:56:43.529Z,1.04
2022-10-23T02:57:43.935Z,1.04
2022-10-23T02:58:43.834Z,1.04
2022-10-23T02:59:43.965Z,1.04
2022-10-23T03:00:44.105Z,1.04
2022-10-23T03:01:44.490Z,1.04
2022-10-23T03:02:44.403Z,1.04
2022-10-23T03:03:44.507Z,1.04
2022-10-23T03:04:44.592Z,1.04
2022-10-23T03:05:44.750Z,1.04
2022-10-23T03:06:44.897Z,1.04
2022-10-23T03:07:45.172Z,1.04
2022-10-23T03:08:45.209Z,1.04
2022-10-23T03:09:45.302Z,1.04
2022-10-23T03:10:45.514Z,1.04
2022-10-23T03:11:45.609Z,1.04
2022-10-23T03:12:45.922Z,1.04
2022-10-23T03:13:45.885Z,1.04
2022-10-23T03:14:46.012Z,1.04
2022-10-23T03:15:46.163Z,1.04
2022-10-23T03:16:46.308Z,1.04
2022-10-23T03:17:46.464Z,1.04
2022-10-23T03:18:46.617Z,1.04
2022-10-23T03:19:46.776Z,1.04
2022-10-23T03:20:46.933Z,1.04
2022-10-23T03:21:47.068Z,1.04
2022-10-23T03:22:47.224Z,1.04
2022-10-23T03:23:47.375Z,1.04
2022-10-23T03:24:47.527Z,1.04
2022-10-23T03:25:47.680Z,1.04
2022-10-23T03:26:47.835Z,1.04
2022-10-23T03:27:47.977Z,1.04
2022-10-23T03:28:48.129Z,1.04
2022-10-23T03:29:48.248Z,1.04
2022-10-23T03:30:48.382Z,1.04
2022-10-23T03:31:48.498Z,1.04
2022-10-23T03:32:48.640Z,1.04
2022-10-23T03:33:48.798Z,1.04
2022-10-23T03:34:48.942Z,1.04
2022-10-23T03:35:49.156Z,1.04
2022-10-23T03:36:49.255Z,1.04
2022-10-23T03:37:49.358Z,1.04
2022-10-23T03:38:49.496Z,1.04
2022-10-23T03:39:49.651Z,1.04
2022-10-23T03:40:49.809Z,1.04
2022-10-23T03:41:49.954Z,1.04
2022-10-23T03:42:50.055Z,1.04
2022-10-23T03:43:50.208Z,1.04
2022-10-23T03:44:50.365Z,1.04
2022-10-23T03:45:50.510Z,1.04
2022-10-23T03:46:50.671Z,1.04
2022-10-23T03:47:50.757Z,1.04
2022-10-23T03:48:50.914Z,1.04
2022-10-23T03:49:51.025Z,1.04
2022-10-23T03:50:51.164Z,1.04
2022-10-23T03:51:51.328Z,1.04
2022-10-23T03:52:51.429Z,1.04
2022-10-23T03:53:51.582Z,1.04
2022-10-23T03:54:51.739Z,1.04
2022-10-23T03:55:51.880Z,1.04
2022-10-23T03:56:53.595Z,1.04
2022-10-23T03:57:52.133Z,1.04
2022-10-23T03:58:52.285Z,1.04
2022-10-23T03:59:52.420Z,1.04
2022-10-23T04:00:52.535Z,1.04
2022-10-23T04:01:52.815Z,1.04
2022-10-23T04:02:52.794Z,1.04
2022-10-23T04:03:52.949Z,1.04
2022-10-23T04:04:53.097Z,1.04
2022-10-23T04:05:53.199Z,1.04
2022-10-23T04:06:53.345Z,1.04
2022-10-23T04:07:53.495Z,1.04
2022-10-23T04:08:53.659Z,1.04
2022-10-23T04:09:53.812Z,1.04
2022-10-23T04:10:53.966Z,1.04
2022-10-23T04:11:54.063Z,1.04
2022-10-23T04:12:54.236Z,1.04
2022-10-23T04:13:54.359Z,1.04
2022-10-23T04:14:54.525Z,1.04
2022-10-23T04:15:54.658Z,1.04
2022-10-23T04:16:54.765Z,1.04
2022-10-23T04:17:54.921Z,1.04
2022-10-23T04:18:55.019Z,1.04
2022-10-23T04:19:55.131Z,1.04
2022-10-23T04:20:55.273Z,1.04
2022-10-23T04:21:55.428Z,1.04
2022-10-23T04:22:55.523Z,1.04
2022-10-23T04:23:55.625Z,1.04
2022-10-23T04:24:55.719Z,1.04
2022-10-23T04:25:55.829Z,1.04
2022-10-23T04:26:55.989Z,1.04
2022-10-23T04:27:56.139Z,1.04
2022-10-23T04:28:56.291Z,1.04
2022-10-23T04:29:58.247Z,1.04
2022-10-23T04:30:56.540Z,1.04
2022-10-23T04:31:56.692Z,1.04
2022-10-23T04:32:56.842Z,1.04
2022-10-23T04:33:57.021Z,1.04
2022-10-23T04:34:57.146Z,1.04
2022-10-23T04:35:57.297Z,1.04
2022-10-23T04:36:57.450Z,1.04
2022-10-23T04:37:57.597Z,1.04
2022-10-23T04:38:57.747Z,1.04
2022-10-23T04:39:57.910Z,1.04
2022-10-23T04:40:58.052Z,1.04
2022-10-23T04:41:58.207Z,1.04
2022-10-23T04:42:58.367Z,1.04
2022-10-23T04:43:58.515Z,1.04
2022-10-23T04:44:58.684Z,1.04
2022-10-23T04:45:58.781Z,1.04
2022-10-23T04:46:58.929Z,1.04
2022-10-23T04:47:59.111Z,1.04
2022-10-23T04:48:59.225Z,1.04
2022-10-23T04:49:59.328Z,1.04
2022-10-23T04:50:59.433Z,1.04
2022-10-23T04:51:59.573Z,1.04
2022-10-23T04:52:59.682Z,1.04
2022-10-23T04:53:59.830Z,1.04
2022-10-23T04:54:59.978Z,1.04
2022-10-23T04:56:00.149Z,1.04
2022-10-23T04:57:00.282Z,1.04
2022-10-23T04:58:00.431Z,1.04
2022-10-23T04:59:00.587Z,1.04
2022-10-23T05:00:00.695Z,1.04
2022-10-23T05:01:00.907Z,1.04
2022-10-23T05:02:00.947Z,1.04
2022-10-23T05:03:01.097Z,1.04
2022-10-23T05:04:01.251Z,1.04
2022-10-23T05:05:01.406Z,2
2022-10-23T05:06:01.505Z,2
2022-10-23T05:07:01.652Z,2
2022-10-23T05:08:01.756Z,2
2022-10-23T05:09:01.901Z,3.04
2022-10-23T05:10:02.063Z,3.04
2022-10-23T05:11:02.205Z,3.04
2022-10-23T05:12:02.360Z,4
2022-10-23T05:13:02.507Z,4
2022-10-23T05:14:02.611Z,5.04
2022-10-23T05:15:02.769Z,6
2022-10-23T05:16:02.913Z,7.04
2022-10-23T05:17:03.073Z,8
2022-10-23T05:18:03.228Z,10
2022-10-23T05:19:03.390Z,12
2022-10-23T05:20:03.537Z,14
2022-10-23T05:21:03.694Z,16
2022-10-23T05:22:03.830Z,19.04
2022-10-23T05:23:03.980Z,21.04
2022-10-23T05:24:04.136Z,26
2022-10-23T05:25:04.276Z,31.04
2022-10-23T05:26:04.439Z,38
2022-10-23T05:27:04.583Z,46
2022-10-23T05:28:04.734Z,57.04
2022-10-23T05:29:04.886Z,66
2022-10-23T05:30:05.049Z,80
2022-10-23T05:31:05.187Z,93.04
2022-10-23T05:32:05.298Z,110
2022-10-23T05:33:05.454Z,130
2022-10-23T05:34:06.818Z,150
2022-10-23T05:35:05.759Z,178.08
2022-10-23T05:36:05.862Z,202.08
2022-10-23T05:37:06.013Z,232
2022-10-23T05:38:06.179Z,255.04
2022-10-23T05:39:06.301Z,276
2022-10-23T05:40:06.413Z,303.04
2022-10-23T05:41:06.556Z,327.04
2022-10-23T05:42:06.673Z,358.08
2022-10-23T05:43:06.845Z,384
2022-10-23T05:44:06.968Z,410.24
2022-10-23T05:45:07.125Z,446.08
2022-10-23T05:46:07.263Z,475.2
2022-10-23T05:47:07.415Z,515.2
2022-10-23T05:48:11.192Z,553.28
2022-10-23T05:49:07.667Z,593.28
2022-10-23T05:50:07.832Z,645.12
2022-10-23T05:51:07.981Z,692.48
2022-10-23T05:52:08.127Z,759.04
2022-10-23T05:53:08.285Z,822.4
2022-10-23T05:54:08.386Z,888.32
2022-10-23T05:55:08.543Z,973.44
2022-10-23T05:56:08.695Z,1040
2022-10-23T05:57:08.857Z,1114.24
2022-10-23T05:58:08.984Z,1169.28
2022-10-23T05:59:09.147Z,1237.12
2022-10-23T06:00:09.254Z,1282.56
2022-10-23T06:01:09.435Z,1424.64
2022-10-23T06:02:09.568Z,1516.8
2022-10-23T06:03:09.780Z,1587.2
2022-10-23T06:04:09.911Z,1680.64
2022-10-23T06:05:10.056Z,1760
2022-10-23T06:06:10.207Z,1864.96
2022-10-23T06:07:10.369Z,1940.48
2022-10-23T06:08:10.517Z,2017.28
2022-10-23T06:09:10.690Z,2082.56
2022-10-23T06:10:10.821Z,2146.56
2022-10-23T06:11:10.973Z,2202.88
2022-10-23T06:12:11.113Z,2252.8
2022-10-23T06:13:11.260Z,2314.24
2022-10-23T06:14:11.384Z,2362.88
2022-10-23T06:15:11.540Z,2460.16
2022-10-23T06:16:11.677Z,2602.24
2022-10-23T06:17:11.819Z,2767.36
2022-10-23T06:18:11.969Z,2798.08
2022-10-23T06:19:12.130Z,2731.52
2022-10-23T06:20:12.273Z,2798.08
2022-10-23T06:21:12.425Z,2946.56
2022-10-23T06:22:12.586Z,3077.12
2022-10-23T06:23:12.677Z,3220.48
2022-10-23T06:24:12.834Z,3358.72
2022-10-23T06:25:12.934Z,3709.44
2022-10-23T06:26:13.089Z,4848.64
2022-10-23T06:27:13.248Z,6451.2
2022-10-23T06:28:15.816Z,7055.36
2022-10-23T06:29:13.504Z,8227.84
2022-10-23T06:30:13.658Z,9272.319
2022-10-23T06:31:13.797Z,10424.319
2022-10-23T06:32:13.953Z,11182.08
2022-10-23T06:33:14.078Z,12195.84
2022-10-23T06:34:14.198Z,12718.08
2022-10-23T06:35:14.358Z,12933.12
2022-10-23T06:36:14.509Z,14417.92
2022-10-23T06:37:14.663Z,14888.96
2022-10-23T06:38:14.820Z,15544.319
2022-10-23T06:39:14.975Z,15400.96
2022-10-23T06:40:15.111Z,16066.56
2022-10-23T06:41:15.242Z,16271.359
2022-10-23T06:42:15.366Z,16517.12
2022-10-23T06:43:15.533Z,17152
2022-10-23T06:44:15.680Z,17141.76
2022-10-23T06:45:15.840Z,17029.12
2022-10-23T06:46:15.963Z,19210.24
2022-10-23T06:48:17.296Z,20449.28
2022-10-23T06:49:16.327Z,20879.36
2022-10-23T06:50:16.482Z,21258.24
2022-10-23T06:51:16.633Z,21729.28
2022-10-23T06:52:34.839Z,22200.32
2022-10-23T06:53:16.948Z,22732.8
2022-10-23T06:54:17.084Z,23060.48
2022-10-23T06:55:17.234Z,23797.76
2022-10-23T06:56:17.389Z,24227.84
2022-10-23T06:57:17.546Z,22077.44
2022-10-23T06:58:17.693Z,23859.2
2022-10-23T06:59:17.850Z,25948.16
2022-10-23T07:00:18.008Z,26460.16
2022-10-23T07:01:18.334Z,26030.08
2022-10-23T07:02:18.257Z,27791.36
2022-10-23T07:03:18.399Z,27852.8
2022-10-23T07:04:18.564Z,29470.72
2022-10-23T07:05:18.707Z,29265.92
2022-10-23T07:06:18.855Z,28160
2022-10-23T07:07:19.011Z,31129.6
2022-10-23T07:08:19.162Z,31662.08
2022-10-23T07:09:19.316Z,31907.84
2022-10-23T07:10:19.480Z,34058.24
2022-10-23T07:11:19.613Z,35594.24
2022-10-23T07:12:19.762Z,37294.08
2022-10-23T07:13:19.930Z,37601.28
2022-10-23T07:14:20.080Z,37806.08
2022-10-23T07:15:20.227Z,39219.2
2022-10-23T07:16:20.371Z,39587.84
2022-10-23T07:17:20.580Z,40284.16
2022-10-23T07:18:21.504Z,40673.28
2022-10-23T07:19:20.826Z,37355.52
2022-10-23T07:20:20.984Z,33976.32
2022-10-23T07:21:21.129Z,21053.44
2022-10-23T07:22:21.281Z,26603.52
2022-10-23T07:23:21.435Z,25886.72
2022-10-23T07:24:21.593Z,35000.32
2022-10-23T07:25:21.744Z,38481.92
2022-10-23T07:26:21.903Z,38871.04
2022-10-23T07:27:22.036Z,38113.28
2022-10-23T07:28:22.201Z,38338.56
2022-10-23T07:29:22.345Z,38154.24
2022-10-23T07:30:22.499Z,34467.84
2022-10-23T07:31:24.265Z,34570.24
2022-10-23T07:32:22.758Z,37744.64
2022-10-23T07:33:22.836Z,37130.24
2022-10-23T07:34:23.044Z,34795.52
2022-10-23T07:35:23.145Z,32604.16
2022-10-23T07:36:23.294Z,32194.56
2022-10-23T07:37:23.435Z,32460.8
2022-10-23T07:38:23.571Z,32665.6
2022-10-23T07:39:23.691Z,33935.36
2022-10-23T07:40:23.792Z,33525.76
2022-10-23T07:41:23.942Z,31457.28
2022-10-23T07:42:24.049Z,39690.24
2022-10-23T07:43:24.251Z,42352.64
2022-10-23T07:44:25.664Z,42926.08
2022-10-23T07:45:24.531Z,45547.52
2022-10-23T07:46:24.665Z,50216.96
2022-10-23T07:47:24.764Z,46776.32
2022-10-23T07:48:24.883Z,47923.2
2022-10-23T07:49:25.036Z,42024.96
2022-10-23T07:50:25.253Z,43499.52
2022-10-23T07:51:25.279Z,33607.68
2022-10-23T07:52:25.465Z,24023.04
2022-10-23T07:53:25.516Z,36433.92
2022-10-23T07:54:25.664Z,38440.96
2022-10-23T07:55:25.782Z,36618.24
2022-10-23T07:56:25.932Z,38502.4
2022-10-23T07:57:26.088Z,50380.8
2022-10-23T07:58:26.197Z,44236.8
2022-10-23T07:59:26.344Z,39772.16
2022-10-23T08:00:26.503Z,36802.56
2022-10-23T08:01:26.664Z,30146.56
2022-10-23T08:02:26.729Z,30023.68
2022-10-23T08:03:26.855Z,28774.4
2022-10-23T08:04:27.002Z,26152.96
2022-10-23T08:05:27.177Z,27320.32
2022-10-23T08:06:27.311Z,30023.68
2022-10-23T08:07:27.466Z,30085.12
2022-10-23T08:08:27.640Z,36147.2
2022-10-23T08:09:27.736Z,35368.96
2022-10-23T08:10:27.815Z,37990.4
2022-10-23T08:11:27.982Z,41185.28
2022-10-23T08:12:28.123Z,39075.84
2022-10-23T08:13:28.271Z,32665.6
2022-10-23T08:14:28.431Z,37478.4
2022-10-23T08:15:28.519Z,45916.16
2022-10-23T08:16:28.635Z,53985.28
2022-10-23T08:17:28.774Z,52961.28
2022-10-23T08:18:28.884Z,58490.88
2022-10-23T08:19:29.030Z,58327.04
2022-10-23T08:20:29.139Z,55296
2022-10-23T08:21:29.282Z,59801.6
2022-10-23T08:22:29.387Z,55418.88
2022-10-23T08:23:29.539Z,53248
2022-10-23T08:24:29.692Z,50094.08
2022-10-23T08:25:29.853Z,57589.76
2022-10-23T08:26:29.884Z,59473.92
2022-10-23T08:27:30.029Z,64266.24
2022-10-23T08:28:30.125Z,66150.4
2022-10-23T08:29:30.348Z,64798.72
2022-10-23T08:30:30.446Z,63938.56
2022-10-23T08:31:30.596Z,59514.88
2022-10-23T08:32:30.756Z,57016.32
2022-10-23T08:33:30.858Z,57999.36
2022-10-23T08:34:31.007Z,53411.84
2022-10-23T08:35:31.161Z,60620.8
2022-10-23T08:36:31.311Z,56360.96
2022-10-23T08:37:31.457Z,53903.36
2022-10-23T08:38:31.616Z,55296
2022-10-23T08:39:31.775Z,57384.96
2022-10-23T08:40:31.929Z,56688.64
2022-10-23T08:41:32.068Z,58695.68
2022-10-23T08:42:32.219Z,58777.6
2022-10-23T08:43:32.377Z,54845.44
2022-10-23T08:44:32.540Z,40386.56
2022-10-23T08:45:32.683Z,33320.96
2022-10-23T08:46:32.854Z,24719.36
2022-10-23T08:47:32.922Z,24944.64
2022-10-23T08:48:33.080Z,24698.88
2022-10-23T08:49:33.264Z,24616.96
2022-10-23T08:50:33.341Z,29368.32
2022-10-23T08:51:33.482Z,26849.28
2022-10-23T08:52:33.635Z,35676.16
2022-10-23T08:53:33.796Z,40366.08
2022-10-23T08:54:33.950Z,43130.88
2022-10-23T08:55:34.092Z,35819.52
2022-10-23T08:56:34.199Z,55623.68
2022-10-23T08:57:34.343Z,46039.04
2022-10-23T08:58:34.500Z,71434.24
2022-10-23T08:59:34.676Z,34836.48
2022-10-23T09:00:34.805Z,30965.76
2022-10-23T09:01:35.029Z,53207.04
2022-10-23T09:02:35.103Z,48496.64
2022-10-23T09:03:35.264Z,24330.24
2022-10-23T09:04:35.934Z,26091.52
2022-10-23T09:05:35.881Z,21913.6
2022-10-23T09:06:35.659Z,24350.72
2022-10-23T09:07:35.799Z,29573.12
2022-10-23T09:08:35.916Z,34590.72
2022-10-23T09:09:36.071Z,29143.04
2022-10-23T09:10:36.216Z,35655.68
2022-10-23T09:11:36.376Z,33546.24
2022-10-23T09:12:36.517Z,32604.16
2022-10-23T09:13:36.676Z,30085.12
2022-10-23T09:14:36.823Z,23982.08
2022-10-23T09:15:36.974Z,21975.04
2022-10-23T09:16:37.126Z,22405.12
2022-10-23T09:17:37.283Z,22712.32
2022-10-23T09:18:37.442Z,24739.84
2022-10-23T09:19:37.593Z,26316.8
2022-10-23T09:20:37.737Z,31334.4
2022-10-23T09:21:37.884Z,35614.72
2022-10-23T09:22:37.940Z,26009.6
2022-10-23T09:23:38.095Z,27402.24
2022-10-23T09:24:38.246Z,29921.28
2022-10-23T09:25:38.390Z,27176.96
2022-10-23T09:26:38.549Z,28385.28
2022-10-23T09:27:38.696Z,26992.64
2022-10-23T09:28:38.853Z,31252.48
2022-10-23T09:29:39.002Z,27074.56
2022-10-23T09:30:39.145Z,29306.88
2022-10-23T09:31:39.316Z,29511.68
2022-10-23T09:32:39.456Z,29470.72
2022-10-23T09:33:39.615Z,28651.52
2022-10-23T09:34:39.784Z,28344.32
2022-10-23T09:35:39.922Z,27074.56
2022-10-23T09:36:40.058Z,29941.76
2022-10-23T09:37:40.372Z,26234.88
2022-10-23T09:38:40.320Z,30023.68
2022-10-23T09:39:40.474Z,35942.4
2022-10-23T09:40:40.631Z,30433.28
2022-10-23T09:41:40.780Z,32317.44
2022-10-23T09:42:40.934Z,28467.2
2022-10-23T09:43:41.081Z,30023.68
2022-10-23T09:44:41.231Z,33136.64
2022-10-23T09:45:41.370Z,33771.52
2022-10-23T09:46:41.542Z,39915.52
2022-10-23T09:47:41.853Z,41574.4
2022-10-23T09:48:41.779Z,42352.64
2022-10-23T09:49:41.945Z,51773.44
2022-10-23T09:50:42.098Z,55214.08
2022-10-23T09:51:42.194Z,54845.44
2022-10-23T09:52:42.297Z,55009.28
2022-10-23T09:53:42.431Z,60661.76
2022-10-23T09:54:42.593Z,46407.68
2022-10-23T09:55:42.742Z,44933.12
2022-10-23T09:56:42.985Z,52797.44
2022-10-23T09:57:43.159Z,55377.92
2022-10-23T09:58:43.151Z,58859.52
2022-10-23T09:59:43.303Z,54968.32
2022-10-23T10:00:43.467Z,62382.08
2022-10-23T10:01:43.661Z,62832.64
2022-10-23T10:02:43.750Z,60006.4
2022-10-23T10:03:43.904Z,59473.92
2022-10-23T10:04:44.001Z,66846.72
2022-10-23T10:05:44.095Z,65208.32
2022-10-23T10:06:44.275Z,66314.24
2022-10-23T10:07:44.618Z,62832.64
2022-10-23T10:08:44.595Z,69181.44
2022-10-23T10:09:44.717Z,65208.32
2022-10-23T10:10:44.856Z,69017.6
2022-10-23T10:11:45.017Z,70246.4
2022-10-23T10:12:45.181Z,74752
2022-10-23T10:13:45.325Z,80568.32
2022-10-23T10:14:45.421Z,77291.52
2022-10-23T10:15:45.564Z,77701.12
2022-10-23T10:16:45.684Z,81100.8
2022-10-23T10:17:46.079Z,80855.04
2022-10-23T10:18:45.979Z,87654.4
2022-10-23T10:19:46.087Z,83763.2
2022-10-23T10:20:46.235Z,81715.2
2022-10-23T10:21:46.386Z,79052.8
2022-10-23T10:22:46.485Z,82042.88
2022-10-23T10:23:46.648Z,86507.52
2022-10-23T10:24:46.798Z,85360.64
2022-10-23T10:25:51.211Z,79994.88
2022-10-23T10:26:47.097Z,79380.48
2022-10-23T10:27:47.248Z,79872
2022-10-23T10:28:47.350Z,82452.48
2022-10-23T10:29:47.450Z,76308.48
2022-10-23T10:30:47.589Z,71639.04
2022-10-23T10:31:49.420Z,79339.52
2022-10-23T10:32:47.906Z,82616.32
2022-10-23T10:33:48.024Z,79216.64
2022-10-23T10:34:48.108Z,69550.08
2022-10-23T10:35:48.261Z,77209.6
2022-10-23T10:36:48.382Z,78929.92
2022-10-23T10:37:49.335Z,78110.72
2022-10-23T10:38:48.610Z,75939.84
2022-10-23T10:39:48.820Z,57384.96
2022-10-23T10:40:48.908Z,73809.92
2022-10-23T10:41:49.078Z,56688.64
2022-10-23T10:42:49.228Z,44523.52
2022-10-23T10:43:49.386Z,32010.24
2022-10-23T10:44:49.536Z,31416.32
2022-10-23T10:45:49.666Z,29122.56
2022-10-23T10:46:49.833Z,34242.56
2022-10-23T10:47:49.986Z,37007.36
2022-10-23T10:48:50.129Z,37068.8
2022-10-23T10:49:50.285Z,34959.36
2022-10-23T10:50:50.434Z,34037.76
2022-10-23T10:51:50.587Z,28549.12
2022-10-23T10:52:50.733Z,25866.24
2022-10-23T10:53:50.890Z,25272.32
2022-10-23T10:54:51.046Z,25128.96
2022-10-23T10:55:51.152Z,23879.68
2022-10-23T10:56:51.306Z,24555.52
2022-10-23T10:57:51.408Z,25395.2
2022-10-23T10:58:51.554Z,24535.04
2022-10-23T10:59:51.709Z,25661.44
2022-10-23T11:00:51.888Z,27381.76
2022-10-23T11:01:52.169Z,29962.24
2022-10-23T11:02:52.115Z,29368.32
2022-10-23T11:03:52.263Z,33628.16
2022-10-23T11:04:52.407Z,38420.48
2022-10-23T11:05:52.594Z,32747.52
2022-10-23T11:06:52.667Z,37376
2022-10-23T11:07:52.764Z,30371.84
2022-10-23T11:08:57.771Z,35041.28
2022-10-23T11:09:53.079Z,32808.96
2022-10-23T11:10:53.230Z,34181.12
2022-10-23T11:11:53.327Z,38051.84
2022-10-23T11:12:53.468Z,40919.04
2022-10-23T11:13:53.628Z,37416.96
2022-10-23T11:14:53.780Z,33095.68
2022-10-23T11:15:53.886Z,31375.36
2022-10-23T11:16:53.977Z,33157.12
2022-10-23T11:17:54.132Z,35573.76
2022-10-23T11:18:54.295Z,39362.56
2022-10-23T11:19:54.448Z,36802.56
2022-10-23T11:20:54.592Z,31232
2022-10-23T11:21:54.734Z,28467.2
2022-10-23T11:22:54.887Z,28692.48
2022-10-23T11:23:55.044Z,27893.76
2022-10-23T11:24:55.762Z,27648
2022-10-23T11:25:55.342Z,28979.2
2022-10-23T11:26:55.497Z,34160.64
2022-10-23T11:27:57.300Z,38666.24
2022-10-23T11:28:55.754Z,33320.96
2022-10-23T11:29:55.851Z,29696
2022-10-23T11:30:55.991Z,28241.92
2022-10-23T11:31:56.153Z,28590.08
2022-10-23T11:32:56.253Z,28282.88
2022-10-23T11:33:56.366Z,27504.64
2022-10-23T11:34:56.513Z,26624
2022-10-23T11:35:56.668Z,25600
2022-10-23T11:36:56.820Z,25661.44
2022-10-23T11:37:56.925Z,24616.96
2022-10-23T11:38:57.024Z,24535.04
2022-10-23T11:39:57.177Z,24494.08
2022-10-23T11:40:57.327Z,24576
2022-10-23T11:41:57.475Z,24535.04
2022-10-23T11:42:57.620Z,26501.12
2022-10-23T11:43:57.784Z,28262.4
2022-10-23T11:44:57.878Z,27095.04
2022-10-23T11:45:57.952Z,28835.84
2022-10-23T11:46:58.191Z,27422.72
2022-10-23T11:47:58.231Z,33996.8
2022-10-23T11:48:58.462Z,38359.04
2022-10-23T11:49:58.535Z,34447.36
2022-10-23T11:50:59.188Z,32522.24
2022-10-23T11:51:58.839Z,32235.52
2022-10-23T11:53:59.093Z,31477.76
2022-10-23T11:54:59.255Z,30269.44
2022-10-23T11:55:59.423Z,28282.88
2022-10-23T11:56:59.554Z,28200.96
2022-10-23T11:57:59.648Z,26337.28
2022-10-23T11:58:59.793Z,26398.72
2022-10-23T11:59:59.961Z,25436.16
2022-10-23T12:01:00.139Z,28180.48
2022-10-23T12:02:00.313Z,26910.72
2022-10-23T12:03:00.439Z,25722.88
2022-10-23T12:04:00.504Z,25722.88
2022-10-23T12:05:00.666Z,24739.84
2022-10-23T12:06:00.855Z,24289.28
2022-10-23T12:07:00.977Z,25026.56
2022-10-23T12:08:01.122Z,25251.84
2022-10-23T12:09:01.269Z,25333.76
2022-10-23T12:10:01.428Z,25477.12
2022-10-23T12:11:01.609Z,24821.76
2022-10-23T12:12:01.721Z,23552
2022-10-23T12:13:01.818Z,25559.04
2022-10-23T12:14:02.033Z,25415.68
2022-10-23T12:15:02.132Z,25436.16
2022-10-23T12:16:02.272Z,25640.96
2022-10-23T12:17:02.432Z,27197.44
2022-10-23T12:18:02.576Z,29573.12
2022-10-23T12:19:02.675Z,29818.88
2022-10-23T12:20:02.835Z,28958.72
2022-10-23T12:21:02.990Z,29163.52
2022-10-23T12:22:03.144Z,26890.24
2022-10-23T12:23:03.299Z,26419.2
2022-10-23T12:24:03.443Z,27852.8
2022-10-23T12:25:03.547Z,27095.04
2022-10-23T12:26:03.695Z,26542.08
2022-10-23T12:27:03.858Z,31068.16
2022-10-23T12:28:04.025Z,30023.68
2022-10-23T12:29:04.176Z,25477.12
2022-10-23T12:30:04.303Z,23674.88
2022-10-23T12:31:04.446Z,23777.28
2022-10-23T12:32:04.546Z,22487.04
2022-10-23T12:33:04.654Z,21688.32
2022-10-23T12:34:04.745Z,21135.36
2022-10-23T12:35:04.931Z,20869.12